createdAt,value
2019-04-23T00:00:13.048Z,15.67
2019-04-23T00:00:51.936Z,15.74
2019-04-23T00:01:41.659Z,15.76
2019-04-23T00:02:18.354Z,15.7
2019-04-23T00:02:58.158Z,15.66
2019-04-23T00:03:38.535Z,15.68
2019-04-23T00:04:16.451Z,15.6
2019-04-23T00:04:58.164Z,15.7
2019-04-23T00:05:46.598Z,15.68
2019-04-23T00:06:23.173Z,15.67
2019-04-23T00:07:15.031Z,15.77
2019-04-23T00:07:48.165Z,15.74
2019-04-23T00:08:35.640Z,15.73
2019-04-23T00:09:18.783Z,15.67
2019-04-23T00:09:56.708Z,15.68
2019-04-23T00:10:33.023Z,15.58
2019-04-23T00:11:18.855Z,15.62
2019-04-23T00:11:59.653Z,15.52
2019-04-23T00:12:47.682Z,15.44
2019-04-23T00:13:20.940Z,15.41
2019-04-23T00:14:05.404Z,15.41
2019-04-23T00:14:45.661Z,15.44
2019-04-23T00:15:23.080Z,15.43
2019-04-23T00:16:43.818Z,15.43
2019-04-23T00:17:29.742Z,15.51
2019-04-23T00:18:02.632Z,15.55
2019-04-23T00:18:55.643Z,15.51
2019-04-23T00:19:24.488Z,15.52
2019-04-23T00:20:07.691Z,15.46
2019-04-23T00:20:47.532Z,15.46
2019-04-23T00:21:32.928Z,15.4
2019-04-23T00:22:12.960Z,15.48
2019-04-23T00:23:16.097Z,15.46
2019-04-23T00:23:34.487Z,15.41
2019-04-23T00:24:17.218Z,15.41
2019-04-23T00:26:23.625Z,15.31
2019-04-23T00:27:05.581Z,15.4
2019-04-23T00:27:57.670Z,15.3
2019-04-23T00:28:20.249Z,15.34
2019-04-23T00:29:05.194Z,15.33
2019-04-23T00:29:45.786Z,15.3
2019-04-23T00:30:26.238Z,15.28
2019-04-23T00:31:04.178Z,15.33
2019-04-23T00:31:42.859Z,15.37
2019-04-23T00:32:28.430Z,15.48
2019-04-23T00:33:05.090Z,15.43
2019-04-23T00:33:40.693Z,15.33
2019-04-23T00:34:32.965Z,15.34
2019-04-23T00:35:05.457Z,15.4
2019-04-23T00:36:00.911Z,15.28
2019-04-23T00:36:30.547Z,15.34
2019-04-23T00:37:18.239Z,15.3
2019-04-23T00:37:47.138Z,15.25
2019-04-23T00:38:38.204Z,15.23
2019-04-23T00:39:15.023Z,15.19
2019-04-23T00:39:56.136Z,15.22
2019-04-23T00:40:38.810Z,15.19
2019-04-23T00:41:15.735Z,15.15
2019-04-23T00:41:57.165Z,15.16
2019-04-23T00:42:41.373Z,15.15
2019-04-23T00:43:21.626Z,15.18
2019-04-23T00:44:45.751Z,15.05
2019-04-23T00:45:24.258Z,15.11
2019-04-23T00:45:59.098Z,15.05
2019-04-23T00:46:46.391Z,15.03
2019-04-23T00:47:30.784Z,15.04
2019-04-23T00:48:13.435Z,15.04
2019-04-23T00:48:50.102Z,15.04
2019-04-23T00:49:30.759Z,15.03
2019-04-23T00:50:58.137Z,14.9
2019-04-23T00:51:30.095Z,14.86
2019-04-23T00:52:14.241Z,14.91
2019-04-23T00:52:57.172Z,14.94
2019-04-23T00:53:32.306Z,14.97
2019-04-23T00:54:17.323Z,15
2019-04-23T00:55:03.928Z,15.04
2019-04-23T00:55:34.965Z,15.03
2019-04-23T00:56:31.739Z,15.07
2019-04-23T00:57:00.521Z,15.05
2019-04-23T01:01:26.224Z,14.94
2019-04-23T01:02:07.537Z,14.94
2019-04-23T01:02:52.555Z,15.04
2019-04-23T01:03:25.019Z,14.97
2019-04-23T01:04:04.576Z,14.93
2019-04-23T01:04:55.646Z,14.9
2019-04-23T01:05:29.262Z,14.91
2019-04-23T01:06:12.786Z,14.97
2019-04-23T01:06:51.020Z,14.93
2019-04-23T01:07:49.581Z,14.9
2019-04-23T01:08:24.760Z,14.91
2019-04-23T01:08:54.947Z,14.91
2019-04-23T01:09:38.486Z,14.87
2019-04-23T01:10:19.732Z,14.98
2019-04-23T01:11:38.497Z,14.8
2019-04-23T01:12:22.426Z,14.82
2019-04-23T01:13:42.469Z,14.86
2019-04-23T01:14:25.746Z,14.86
2019-04-23T01:15:45.758Z,14.74
2019-04-23T01:16:20.765Z,14.8
2019-04-23T01:17:08.282Z,14.67
2019-04-23T01:17:46.693Z,14.75
2019-04-23T01:18:37.663Z,14.78
2019-04-23T01:19:18.538Z,14.71
2019-04-23T01:19:49.361Z,14.75
2019-04-23T01:20:28.227Z,14.74
2019-04-23T01:20:53.896Z,14.67
2019-04-23T01:21:30.581Z,14.71
2019-04-23T01:22:12.521Z,14.66
2019-04-23T01:22:54.804Z,14.57
2019-04-23T01:23:40.080Z,14.56
2019-04-23T01:24:19.182Z,14.6
2019-04-23T01:25:02.762Z,14.64
2019-04-23T01:25:47.281Z,14.53
2019-04-23T01:26:34.182Z,14.61
2019-04-23T01:28:01.721Z,14.71
2019-04-23T01:28:47.513Z,14.66
2019-04-23T01:29:28.105Z,14.72
2019-04-23T01:30:09.214Z,14.78
2019-04-23T01:31:25.807Z,14.67
2019-04-23T01:32:04.895Z,14.75
2019-04-23T01:32:47.844Z,14.6
2019-04-23T01:34:12.822Z,14.48
2019-04-23T01:34:55.725Z,14.49
2019-04-23T01:36:02.730Z,14.39
2019-04-23T01:36:21.265Z,14.42
2019-04-23T01:36:55.845Z,14.42
2019-04-23T01:37:40.919Z,14.41
2019-04-23T01:38:27.750Z,14.42
2019-04-23T01:39:06.045Z,14.44
2019-04-23T01:39:43.668Z,14.41
2019-04-23T01:40:31.696Z,14.35
2019-04-23T01:41:07.557Z,14.36
2019-04-23T01:42:35.378Z,14.34
2019-04-23T01:43:07.318Z,14.29
2019-04-23T01:46:07.436Z,14.44
2019-04-23T01:46:49.040Z,14.35
2019-04-23T01:47:22.912Z,14.34
2019-04-23T01:48:17.665Z,14.42
2019-04-23T01:49:05.567Z,14.39
2019-04-23T01:49:35.783Z,14.39
2019-04-23T01:50:13.628Z,14.35
2019-04-23T01:51:33.690Z,14.41
2019-04-23T01:52:14.312Z,14.41
2019-04-23T01:53:33.136Z,14.44
2019-04-23T01:54:08.974Z,14.41
2019-04-23T01:54:51.779Z,14.41
2019-04-23T01:55:32.792Z,14.42
2019-04-23T01:56:19.311Z,14.38
2019-04-23T01:56:54.595Z,14.44
2019-04-23T01:58:31.678Z,14.57
2019-04-23T01:59:04.901Z,14.41
2019-04-23T01:59:45.667Z,14.38
2019-04-23T02:00:28.537Z,14.42
2019-04-23T02:01:44.230Z,14.35
2019-04-23T02:02:25.979Z,14.39
2019-04-23T02:03:46.414Z,14.42
2019-04-23T02:05:22.746Z,14.53
2019-04-23T02:05:47.891Z,14.52
2019-04-23T02:06:24.599Z,14.45
2019-04-23T02:07:10.856Z,14.57
2019-04-23T02:07:50.206Z,14.61
2019-04-23T02:08:31.666Z,14.61
2019-04-23T02:09:12.230Z,14.6
2019-04-23T02:11:11.323Z,14.67
2019-04-23T02:11:56.697Z,14.64
2019-04-23T02:12:40.401Z,14.63
2019-04-23T02:13:54.554Z,14.56
2019-04-23T02:14:41.393Z,14.44
2019-04-23T02:15:22.787Z,14.39
2019-04-23T02:15:56.821Z,14.39
2019-04-23T02:16:54.948Z,14.38
2019-04-23T02:17:21.774Z,14.38
2019-04-23T02:18:05.094Z,14.34
2019-04-23T02:18:41.387Z,14.36
2019-04-23T02:19:23.145Z,14.38
2019-04-23T02:20:08.732Z,14.44
2019-04-23T02:20:47.089Z,14.35
2019-04-23T02:21:22.123Z,14.38
2019-04-23T02:22:24.365Z,14.53
2019-04-23T02:22:58.153Z,14.63
2019-04-23T02:23:30.860Z,14.49
2019-04-23T02:24:03.145Z,14.39
2019-04-23T02:24:53.847Z,14.45
2019-04-23T02:25:43.563Z,14.41
2019-04-23T02:26:19.868Z,14.44
2019-04-23T02:26:48.312Z,14.41
2019-04-23T02:27:41.892Z,14.45
2019-04-23T02:28:15.380Z,14.41
2019-04-23T02:30:50.490Z,14.39
2019-04-23T02:31:20.822Z,14.34
2019-04-23T02:31:57.340Z,14.35
2019-04-23T02:32:37.130Z,14.45
2019-04-23T02:34:00.257Z,14.61
2019-04-23T02:35:42.225Z,14.56
2019-04-23T02:35:58.085Z,14.54
2019-04-23T02:36:38.875Z,14.61
2019-04-23T02:37:21.864Z,14.59
2019-04-23T02:38:09.423Z,14.63
2019-04-23T02:39:21.617Z,14.49
2019-04-23T02:40:03.678Z,14.64
2019-04-23T02:42:28.019Z,14.66
2019-04-23T02:43:25.743Z,14.64
2019-04-23T02:44:10.865Z,14.66
2019-04-23T02:44:38.471Z,14.67
2019-04-23T02:45:26.463Z,14.74
2019-04-23T02:46:20.586Z,14.69
2019-04-23T02:46:51.480Z,14.83
2019-04-23T02:47:41.644Z,14.82
2019-04-23T02:48:18.753Z,14.94
2019-04-23T02:49:04.154Z,14.97
2019-04-23T02:49:35.574Z,14.93
2019-04-23T02:50:19.854Z,14.83
2019-04-23T02:52:15.472Z,14.95
2019-04-23T02:52:55.938Z,15.04
2019-04-23T02:53:44.074Z,15.11
2019-04-23T02:55:07.797Z,15.13
2019-04-23T02:56:30.342Z,15.15
2019-04-23T02:56:55.014Z,15.2
2019-04-23T02:57:41.287Z,15.31
2019-04-23T02:59:09.971Z,15.31
2019-04-23T03:00:27.501Z,15.44
2019-04-23T03:01:39.048Z,15.56
2019-04-23T03:04:33.663Z,15.68
2019-04-23T03:05:10.653Z,15.74
2019-04-23T03:05:56.654Z,15.66
2019-04-23T03:07:32.759Z,15.77
2019-04-23T03:08:46.228Z,15.78
2019-04-23T03:09:27.593Z,15.76
2019-04-23T03:11:30.413Z,15.85
2019-04-23T03:12:14.520Z,15.89
2019-04-23T03:12:56.283Z,15.85
2019-04-23T03:13:34.626Z,15.84
2019-04-23T03:14:13.410Z,15.8
2019-04-23T03:17:35.536Z,15.73
2019-04-23T03:18:38.794Z,15.64
2019-04-23T03:19:37.367Z,15.7
2019-04-23T03:20:20.967Z,15.67
2019-04-23T03:23:02.344Z,15.7
2019-04-23T03:24:30.996Z,15.67
2019-04-23T03:25:05.004Z,15.68
2019-04-23T03:25:35.449Z,15.68
2019-04-23T03:27:45.806Z,15.74
2019-04-23T03:28:35.635Z,15.76
2019-04-23T03:29:10.311Z,15.73
2019-04-23T03:29:54.752Z,15.74
2019-04-23T03:30:57.803Z,15.77
2019-04-23T03:32:44.429Z,15.77
2019-04-23T03:33:52.167Z,15.81
2019-04-23T03:36:08.931Z,15.81
2019-04-23T03:36:56.242Z,15.78
2019-04-23T03:37:22.919Z,15.84
2019-04-23T03:38:05.625Z,15.86
2019-04-23T03:38:42.778Z,15.85
2019-04-23T03:39:28.137Z,15.81
2019-04-23T03:40:01.590Z,15.81
2019-04-23T03:40:36.580Z,15.74
2019-04-23T03:41:39.005Z,15.71
2019-04-23T03:42:09.317Z,15.73
2019-04-23T03:44:01.199Z,15.66
2019-04-23T03:44:55.930Z,15.59
2019-04-23T03:46:49.409Z,15.41
2019-04-23T03:47:47.929Z,15.41
2019-04-23T03:48:25.193Z,15.33
2019-04-23T03:51:08.796Z,15.15
2019-04-23T03:53:02.763Z,15.18
2019-04-23T03:57:29.825Z,15.03
2019-04-23T03:58:17.861Z,15.05
2019-04-23T03:58:57.905Z,15.19
2019-04-23T03:59:44.426Z,15.13
2019-04-23T04:00:32.468Z,15.15
2019-04-23T04:01:05.011Z,15.25
2019-04-23T04:01:43.125Z,15.19
2019-04-23T04:03:49.895Z,15.37
2019-04-23T04:04:12.162Z,15.37
2019-04-23T04:05:21.862Z,15.3
2019-04-23T04:05:55.883Z,15.28
2019-04-23T04:07:27.619Z,15.3
2019-04-23T04:08:06.167Z,15.4
2019-04-23T04:21:07.039Z,14.94
2019-04-23T04:21:47.446Z,14.91
2019-04-23T04:22:46.119Z,15
2019-04-23T04:23:16.480Z,15
2019-04-23T04:24:01.047Z,15.03
2019-04-23T04:24:39.370Z,15.01
2019-04-23T04:25:14.147Z,15
2019-04-23T04:26:32.270Z,14.97
2019-04-23T04:28:38.185Z,14.82
2019-04-23T04:29:08.545Z,14.91
2019-04-23T05:07:00.948Z,17.17
2019-04-23T05:08:19.292Z,17.22
2019-04-23T05:09:00.422Z,17.33
2019-04-23T05:09:47.258Z,17.3
2019-04-23T05:10:24.905Z,17.42
2019-04-23T05:11:07.120Z,17.4
2019-04-23T05:11:45.162Z,17.35
2019-04-23T05:13:11.050Z,17.27
2019-04-23T05:14:23.235Z,17.38
2019-04-23T05:15:00.634Z,17.39
2019-04-23T05:15:57.890Z,17.38
2019-04-23T05:17:02.639Z,17.39
2019-04-23T05:17:51.367Z,17.39
2019-04-23T05:19:12.395Z,17.39
2019-04-23T05:20:25.773Z,17.58
2019-04-23T05:21:53.843Z,17.53
2019-04-23T05:22:28.664Z,17.63
2019-04-23T05:24:08.103Z,17.6
2019-04-23T05:24:28.498Z,17.63
2019-04-23T05:25:03.816Z,17.57
2019-04-23T05:27:17.308Z,17.46
2019-04-23T05:28:18.571Z,17.45
2019-04-23T05:28:38.270Z,17.42
2019-04-23T05:29:10.886Z,17.39
2019-04-23T05:29:52.937Z,17.35
2019-04-23T05:30:37.894Z,17.39
2019-04-23T05:31:13.899Z,17.36
2019-04-23T05:31:52.746Z,17.32
2019-04-23T05:32:32.605Z,17.3
2019-04-23T05:33:16.934Z,17.14
2019-04-23T05:33:57.812Z,17.18
2019-04-23T05:35:20.020Z,17.15
2019-04-23T05:36:11.030Z,17.07
2019-04-23T05:36:38.761Z,17
2019-04-23T05:37:19.996Z,16.95
2019-04-23T05:39:33.636Z,16.84
2019-04-23T05:40:02.358Z,16.78
2019-04-23T05:40:44.781Z,16.73
2019-04-23T05:41:34.598Z,16.7
2019-04-23T05:42:04.042Z,16.59
2019-04-23T05:42:45.521Z,16.67
2019-04-23T05:43:25.765Z,16.72
2019-04-23T05:44:15.265Z,16.73
2019-04-23T05:45:34.235Z,16.81
2019-04-23T05:46:26.198Z,16.81
2019-04-23T05:46:59.120Z,16.91
2019-04-23T05:47:41.185Z,16.98
2019-04-23T05:49:05.850Z,17.02
2019-04-23T05:49:45.308Z,17.07
2019-04-23T05:50:33.721Z,17.1
2019-04-23T05:51:17.685Z,17.06
2019-04-23T05:51:50.218Z,17.24
2019-04-23T05:52:23.865Z,17.27
2019-04-23T05:53:03.783Z,17.38
2019-04-23T05:53:44.909Z,17.47
2019-04-23T05:54:43.028Z,17.57
2019-04-23T05:55:07.311Z,17.55
2019-04-23T05:55:55.078Z,17.7
2019-04-23T05:56:31.920Z,17.84
2019-04-23T05:57:51.820Z,18.13
2019-04-23T05:58:36.746Z,18.23
2019-04-23T05:59:54.537Z,18.36
2019-04-23T06:00:39.166Z,18.56
2019-04-23T06:01:31.974Z,18.65
2019-04-23T06:01:56.860Z,18.66
2019-04-23T06:02:40.596Z,18.71
2019-04-23T06:05:24.545Z,19.05
2019-04-23T06:06:02.775Z,18.97
2019-04-23T06:08:02.861Z,19.12
2019-04-23T06:08:45.831Z,19.25
2019-04-23T06:09:24.715Z,19.32
2019-04-23T06:10:04.575Z,19.39
2019-04-23T06:10:47.275Z,19.61
2019-04-23T06:11:36.636Z,19.67
2019-04-23T06:12:04.305Z,19.75
2019-04-23T06:12:50.318Z,19.8
2019-04-23T06:13:35.119Z,19.89
2019-04-23T06:14:52.182Z,19.92
2019-04-23T06:15:31.326Z,20.08
2019-04-23T06:16:21.927Z,20
2019-04-23T06:16:57.303Z,20.07
2019-04-23T06:17:37.511Z,20.1
2019-04-23T06:18:24.116Z,20.2
2019-04-23T06:19:06.899Z,20.27
2019-04-23T06:19:41.569Z,20.31
2019-04-23T06:20:34.762Z,20.37
2019-04-23T06:21:08.803Z,20.35
2019-04-23T06:22:49.132Z,20.13
2019-04-23T06:23:13.136Z,20.13
2019-04-23T06:23:57.761Z,20.22
2019-04-23T06:25:19.329Z,20.4
2019-04-23T06:26:17.685Z,20.48
2019-04-23T06:28:01.168Z,20.73
2019-04-23T06:28:38.596Z,20.82
2019-04-23T06:30:17.322Z,20.97
2019-04-23T06:30:46.599Z,21.12
2019-04-23T06:31:22.445Z,21.22
2019-04-23T06:31:58.341Z,21.3
2019-04-23T06:32:42.596Z,21.33
2019-04-23T06:33:25.366Z,21.33
2019-04-23T06:34:11.933Z,21.16
2019-04-23T06:35:03.386Z,21.01
2019-04-23T06:35:28.410Z,20.42
2019-04-23T06:36:12.204Z,20
2019-04-23T06:36:50.623Z,19.7
2019-04-23T06:37:47.535Z,19.72
2019-04-23T06:39:06.245Z,19.6
2019-04-23T06:41:00.574Z,19.2
2019-04-23T06:41:43.044Z,19.07
2019-04-23T06:42:17.342Z,19.1
2019-04-23T06:43:04.513Z,19.23
2019-04-23T06:43:49.515Z,19.3
2019-04-23T06:44:23.895Z,19.09
2019-04-23T06:45:21.951Z,18.93
2019-04-23T06:45:42.707Z,18.99
2019-04-23T06:46:36.974Z,18.87
2019-04-23T06:47:06.514Z,18.84
2019-04-23T06:47:53.813Z,18.83
2019-04-23T06:48:33.665Z,18.84
2019-04-23T06:49:16.875Z,18.79
2019-04-23T06:49:55.273Z,18.72
2019-04-23T06:50:41.208Z,18.47
2019-04-23T06:51:25.663Z,18.46
2019-04-23T06:52:08.126Z,18.54
2019-04-23T06:52:31.215Z,18.47
2019-04-23T06:53:23.805Z,18.28
2019-04-23T06:54:11.645Z,18.17
2019-04-23T06:54:54.158Z,18.17
2019-04-23T06:55:49.045Z,18.19
2019-04-23T06:56:58.505Z,18.34
2019-04-23T06:57:39.520Z,18.39
2019-04-23T06:58:18.509Z,18.46
2019-04-23T06:58:58.609Z,18.54
2019-04-23T06:59:35.112Z,18.56
2019-04-23T07:00:20.812Z,18.66
2019-04-23T07:01:00.249Z,18.53
2019-04-23T07:01:44.470Z,18.38
2019-04-23T07:03:07.458Z,18.26
2019-04-23T07:03:49.867Z,18.26
2019-04-23T07:04:23.705Z,18.31
2019-04-23T07:05:08.099Z,18.17
2019-04-23T07:05:52.601Z,18.16
2019-04-23T07:07:42.297Z,18.29
2019-04-23T07:08:42.813Z,18.25
2019-04-23T07:09:51.473Z,18.41
2019-04-23T07:10:31.457Z,18.39
2019-04-23T07:11:19.964Z,18.53
2019-04-23T07:11:47.286Z,18.57
2019-04-23T07:12:36.078Z,18.65
2019-04-23T07:13:20.365Z,18.68
2019-04-23T07:13:55.605Z,18.76
2019-04-23T07:14:43.371Z,18.68
2019-04-23T07:15:33.119Z,18.78
2019-04-23T07:15:58.035Z,18.79
2019-04-23T07:16:55.769Z,18.97
2019-04-23T07:17:17.995Z,19.17
2019-04-23T07:18:07.240Z,19.21
2019-04-23T07:19:09.022Z,19.2
2019-04-23T07:19:35.320Z,19.24
2019-04-23T07:20:19.727Z,19.46
2019-04-23T07:20:58.227Z,19.47
2019-04-23T07:21:33.250Z,19.6
2019-04-23T07:22:15.849Z,19.58
2019-04-23T07:23:04.667Z,19.61
2019-04-23T07:23:44.606Z,19.75
2019-04-23T07:24:14.970Z,19.55
2019-04-23T07:24:59.884Z,19.47
2019-04-23T07:25:38.384Z,19.5
2019-04-23T07:26:29.602Z,19.46
2019-04-23T07:27:01.075Z,19.49
2019-04-23T07:27:39.184Z,19.47
2019-04-23T07:28:36.094Z,19.35
2019-04-23T07:29:07.071Z,19.32
2019-04-23T07:30:29.122Z,19.55
2019-04-23T07:31:13.303Z,19.62
2019-04-23T07:31:53.287Z,19.79
2019-04-23T07:32:30.477Z,19.67
2019-04-23T07:33:10.268Z,19.87
2019-04-23T07:33:55.604Z,19.97
2019-04-23T07:34:28.004Z,20.05
2019-04-23T07:35:11.452Z,20
2019-04-23T07:35:59.727Z,20.08
2019-04-23T07:37:16.991Z,19.85
2019-04-23T07:38:01.526Z,19.86
2019-04-23T07:38:47.054Z,19.86
2019-04-23T07:39:21.815Z,19.9
2019-04-23T07:40:17.200Z,19.87
2019-04-23T07:40:40.265Z,19.86
2019-04-23T07:41:29.804Z,19.97
2019-04-23T07:42:07.924Z,20.12
2019-04-23T07:43:02.835Z,20.15
2019-04-23T07:43:27.900Z,20.15
2019-04-23T07:44:20.191Z,20.25
2019-04-23T07:45:34.729Z,20.13
2019-04-23T07:46:16.469Z,20.12
2019-04-23T07:47:02.924Z,20.15
2019-04-23T07:47:50.603Z,20.1
2019-04-23T07:48:13.047Z,20.27
2019-04-23T07:54:52.393Z,19.5
2019-04-23T07:55:40.890Z,19.39
2019-04-23T07:56:12.865Z,19.27
2019-04-23T07:57:01.609Z,19.09
2019-04-23T07:57:33.755Z,19.07
2019-04-23T07:59:03.692Z,19.34
2019-04-23T07:59:48.409Z,19.61
2019-04-23T08:00:27.444Z,19.71
2019-04-23T08:01:03.143Z,19.8
2019-04-23T08:01:48.754Z,19.67
2019-04-23T08:02:33.345Z,19.71
2019-04-23T08:03:16.963Z,19.61
2019-04-23T08:03:54.020Z,19.7
2019-04-23T08:04:42.287Z,19.38
2019-04-23T08:05:22.278Z,19.07
2019-04-23T08:06:00.416Z,18.84
2019-04-23T08:06:45.807Z,18.82
2019-04-23T08:07:26.337Z,18.66
2019-04-23T08:08:22.543Z,18.65
2019-04-23T08:08:56.016Z,18.59
2019-04-23T08:10:27.652Z,18.6
2019-04-23T08:13:07.823Z,18.54
2019-04-23T08:13:53.125Z,18.51
2019-04-23T08:14:31.735Z,18.59
2019-04-23T08:15:14.391Z,18.75
2019-04-23T08:23:01.637Z,18.83
2019-04-23T08:26:19.200Z,18.05
2019-04-23T08:26:53.165Z,18.19
2019-04-23T08:27:34.330Z,18.17
2019-04-23T08:28:22.725Z,18.25
2019-04-23T08:29:03.497Z,18.17
2019-04-23T08:29:30.133Z,18.16
2019-04-23T08:30:23.786Z,18.19
2019-04-23T08:30:58.819Z,18.21
2019-04-23T08:31:42.737Z,18.31
2019-04-23T08:33:03.519Z,18.41
2019-04-23T08:33:49.156Z,18.32
2019-04-23T08:35:05.898Z,18.31
2019-04-23T08:35:50.403Z,18.07
2019-04-23T08:36:34.043Z,18.01
2019-04-23T08:38:09.249Z,18.07
2019-04-23T08:38:35.683Z,18.14
2019-04-23T08:39:17.771Z,18.25
2019-04-23T08:39:51.920Z,18.16
2019-04-23T08:40:42.651Z,18.05
2019-04-23T08:41:26.684Z,18.1
2019-04-23T08:42:13.795Z,18.19
2019-04-23T08:43:00.160Z,18.26
2019-04-23T08:43:35.890Z,18.35
2019-04-23T08:44:15.184Z,18.6
2019-04-23T08:44:56.081Z,18.86
2019-04-23T08:45:27.728Z,19.05
2019-04-23T08:46:04.060Z,19.24
2019-04-23T08:46:56.574Z,19.24
2019-04-23T08:47:26.880Z,19.27
2019-04-23T08:48:57.381Z,19.27
2019-04-23T08:49:40.207Z,19.23
2019-04-23T08:50:12.563Z,19.25
2019-04-23T08:50:48.908Z,19.17
2019-04-23T08:51:43.873Z,19.17
2019-04-23T08:53:03.560Z,19.3
2019-04-23T08:53:39.209Z,19.5
2019-04-23T08:54:23.524Z,19.6
2019-04-23T08:55:00.195Z,19.62
2019-04-23T08:55:53.374Z,19.61
2019-04-23T08:56:31.597Z,19.62
2019-04-23T08:57:46.589Z,19.6
2019-04-23T08:58:39.401Z,19.65
2019-04-23T08:59:14.742Z,19.55
2019-04-23T09:00:37.075Z,19.47
2019-04-23T09:02:03.442Z,19.72
2019-04-23T09:02:47.444Z,19.82
2019-04-23T09:03:18.537Z,19.9
2019-04-23T09:03:51.061Z,19.9
2019-04-23T09:05:23.256Z,19.98
2019-04-23T09:06:03.860Z,19.94
2019-04-23T09:06:43.915Z,19.72
2019-04-23T09:07:27.353Z,19.61
2019-04-23T09:08:12.815Z,19.4
2019-04-23T09:08:49.363Z,19.38
2019-04-23T09:09:43.534Z,19.5
2019-04-23T09:10:19.426Z,19.6
2019-04-23T09:11:04.256Z,19.71
2019-04-23T09:12:23.481Z,19.67
2019-04-23T09:13:18.024Z,20.01
2019-04-23T09:13:53.100Z,20.04
2019-04-23T09:14:22.651Z,20.16
2019-04-23T09:15:06.926Z,20.42
2019-04-23T09:15:49.622Z,20.54
2019-04-23T09:17:26.390Z,21.13
2019-04-23T09:17:54.813Z,21.28
2019-04-23T09:18:32.021Z,21.37
2019-04-23T09:19:21.270Z,21.51
2019-04-23T09:20:11.595Z,21.52
2019-04-23T09:20:30.392Z,21.59
2019-04-23T09:21:20.893Z,21.55
2019-04-23T09:22:07.036Z,21.37
2019-04-23T09:22:37.153Z,21.37
2019-04-23T09:23:26.185Z,21.48
2019-04-23T09:24:02.202Z,21.61
2019-04-23T09:24:46.698Z,21.67
2019-04-23T09:26:20.371Z,21.83
2019-04-23T09:26:50.333Z,21.91
2019-04-23T09:27:32.939Z,21.75
2019-04-23T09:28:15.446Z,21.71
2019-04-23T09:28:51.318Z,21.55
2019-04-23T09:29:38.779Z,21.42
2019-04-23T09:30:12.354Z,21.3
2019-04-23T09:30:53.986Z,21.21
2019-04-23T09:32:00.368Z,21.12
2019-04-23T09:33:05.634Z,21.15
2019-04-23T09:33:51.262Z,21.09
2019-04-23T09:34:25.931Z,21.3
2019-04-23T09:35:44.348Z,21.28
2019-04-23T09:36:33.490Z,21.22
2019-04-23T09:37:51.861Z,21.31
2019-04-23T09:38:31.317Z,21.48
2019-04-23T09:39:12.293Z,21.51
2019-04-23T09:39:58.484Z,21.42
2019-04-23T09:40:41.173Z,21.31
2019-04-23T09:42:02.060Z,21.16
2019-04-23T09:42:46.178Z,21.22
2019-04-23T09:43:19.177Z,21.24
2019-04-23T09:44:14.163Z,21.33
2019-04-23T09:45:26.714Z,21.43
2019-04-23T09:46:11.845Z,21.48
2019-04-23T09:46:52.267Z,21.66
2019-04-23T09:47:26.056Z,21.74
2019-04-23T09:48:04.221Z,21.9
2019-04-23T09:48:57.786Z,21.96
2019-04-23T09:49:32.279Z,21.82
2019-04-23T09:50:15.187Z,21.66
2019-04-23T09:51:43.833Z,21.45
2019-04-23T09:52:19.890Z,21.38
2019-04-23T09:53:09.466Z,21.33
2019-04-23T09:53:57.562Z,21.38
2019-04-23T09:54:39.607Z,21.31
2019-04-23T09:55:51.129Z,21.12
2019-04-23T09:56:29.630Z,21.21
2019-04-23T09:57:03.654Z,21.26
2019-04-23T09:57:55.328Z,21.33
2019-04-23T09:58:28.371Z,21.49
2019-04-23T10:00:16.624Z,21.55
2019-04-23T10:00:35.999Z,21.51
2019-04-23T10:01:18.050Z,21.55
2019-04-23T10:01:49.576Z,21.63
2019-04-23T10:02:33.713Z,21.64
2019-04-23T10:03:08.862Z,21.66
2019-04-23T10:03:50.406Z,21.71
2019-04-23T10:04:30.860Z,21.86
2019-04-23T10:05:13.682Z,22.05
2019-04-23T10:05:50.929Z,22.02
2019-04-23T10:06:24.868Z,22.06
2019-04-23T10:07:16.087Z,21.83
2019-04-23T10:07:51.404Z,21.63
2019-04-23T10:08:29.550Z,21.66
2019-04-23T10:09:06.571Z,21.63
2019-04-23T10:09:47.630Z,21.3
2019-04-23T10:10:28.100Z,21.31
2019-04-23T10:11:07.477Z,21.16
2019-04-23T10:11:49.172Z,21.12
2019-04-23T10:12:28.217Z,20.98
2019-04-23T10:13:09.488Z,20.81
2019-04-23T10:13:50.375Z,20.78
2019-04-23T10:14:30.541Z,20.76
2019-04-23T10:15:20.411Z,20.85
2019-04-23T10:15:53.842Z,20.94
2019-04-23T10:16:36.920Z,20.85
2019-04-23T10:17:18.044Z,21.05
2019-04-23T10:18:00.353Z,21.27
2019-04-23T10:18:41.458Z,21.31
2019-04-23T10:19:22.540Z,21.42
2019-04-23T10:20:02.662Z,21.45
2019-04-23T10:20:44.560Z,21.53
2019-04-23T10:21:25.555Z,21.55
2019-04-23T10:22:05.190Z,21.46
2019-04-23T10:22:48.149Z,21.52
2019-04-23T10:23:29.374Z,21.56
2019-04-23T10:24:09.546Z,21.67
2019-04-23T10:24:49.048Z,21.82
2019-04-23T10:25:30.147Z,21.91
2019-04-23T10:26:10.193Z,22.15
2019-04-23T10:26:52.160Z,22.23
2019-04-23T10:27:32.902Z,22.36
2019-04-23T10:28:13.164Z,22.39
2019-04-23T10:28:53.828Z,22.45
2019-04-23T11:08:01.534Z,21.31
2019-04-23T11:08:40.361Z,21.66
2019-04-23T11:09:42.196Z,21.77
2019-04-23T11:10:08.180Z,22.09
2019-04-23T11:10:49.396Z,22.42
2019-04-23T11:11:34.159Z,22.42
2019-04-23T11:12:48.245Z,22.41
2019-04-23T11:14:24.653Z,22.3
2019-04-23T11:15:26.335Z,22.42
2019-04-23T11:16:23.115Z,22.35
2019-04-23T11:17:01.985Z,22.39
2019-04-23T11:17:47.463Z,22.38
2019-04-23T11:18:36.301Z,22.35
2019-04-23T11:19:31.751Z,22.24
2019-04-23T11:20:13.282Z,22.09
2019-04-23T11:20:33.348Z,22.05
2019-04-23T11:21:20.238Z,22.09
2019-04-23T11:22:01.182Z,22.15
2019-04-23T11:23:10.957Z,22.44
2019-04-23T11:23:57.435Z,22.64
2019-04-23T11:24:41.348Z,22.59
2019-04-23T11:25:53.687Z,22.72
2019-04-23T11:26:41.880Z,22.88
2019-04-23T11:27:27.782Z,22.91
2019-04-23T11:28:42.756Z,22.97
2019-04-23T11:29:33.675Z,23.07
2019-04-23T11:30:18.883Z,23.01
2019-04-23T11:30:44.786Z,23.04
2019-04-23T11:32:59.877Z,23.09
2019-04-23T11:33:50.490Z,22.86
2019-04-23T11:34:33.464Z,22.89
2019-04-23T11:35:59.932Z,22.56
2019-04-23T11:38:05.739Z,22.99
2019-04-23T11:38:48.145Z,22.74
2019-04-23T11:40:58.225Z,22.78
2019-04-23T11:41:50.794Z,22.67
2019-04-23T11:42:25.888Z,22.63
2019-04-23T11:43:06.914Z,22.51
2019-04-23T11:43:45.795Z,22.36
2019-04-23T11:44:54.920Z,22.26
2019-04-23T11:45:12.507Z,22.24
2019-04-23T11:45:53.457Z,22.26
2019-04-23T11:48:42.435Z,22.24
2019-04-23T11:49:23.740Z,22.27
2019-04-23T11:50:06.512Z,22.41
2019-04-23T11:51:04.286Z,22.44
2019-04-23T11:53:25.477Z,22.93
2019-04-23T11:53:59.281Z,23.06
2019-04-23T11:54:42.954Z,23.06
2019-04-23T11:55:38.720Z,23.07
2019-04-23T11:56:10.894Z,23.23
2019-04-23T11:57:28.777Z,23.19
2019-04-23T11:58:26.698Z,23.25
2019-04-23T11:58:51.291Z,23.23
2019-04-23T11:59:43.334Z,23.16
2019-04-23T12:00:23.860Z,23.25
2019-04-23T12:01:08.126Z,23.34
2019-04-23T12:01:46.009Z,23.25
2019-04-23T12:02:21.834Z,23.12
2019-04-23T12:03:00.486Z,23.07
2019-04-23T12:04:04.412Z,23.07
2019-04-23T12:05:26.419Z,22.81
2019-04-23T12:06:05.502Z,22.61
2019-04-23T12:06:38.220Z,22.61
2019-04-23T12:07:22.475Z,22.66
2019-04-23T12:08:05.951Z,22.67
2019-04-23T12:08:42.909Z,22.75
2019-04-23T12:09:34.601Z,22.75
2019-04-23T12:10:10.710Z,22.56
2019-04-23T12:10:57.459Z,22.52
2019-04-23T12:11:52.648Z,22.56
2019-04-23T12:12:44.451Z,22.56
2019-04-23T12:13:43.286Z,22.44
2019-04-23T12:14:28.952Z,22.36
2019-04-23T12:14:49.742Z,22.26
2019-04-23T12:15:37.308Z,22.35
2019-04-23T12:16:27.693Z,22.35
2019-04-23T12:17:18.360Z,22.44
2019-04-23T12:17:40.532Z,22.38
2019-04-23T12:18:25.229Z,22.59
2019-04-23T12:19:31.010Z,22.75
2019-04-23T12:19:55.504Z,22.86
2019-04-23T12:20:31.732Z,22.96
2019-04-23T12:21:12.333Z,23.09
2019-04-23T12:21:52.136Z,23.31
2019-04-23T12:22:35.264Z,23.41
2019-04-23T12:23:31.383Z,23.41
2019-04-23T12:24:03.146Z,23.38
2019-04-23T12:25:02.228Z,23.41
2019-04-23T12:25:24.930Z,23.11
2019-04-23T12:26:10.044Z,22.97
2019-04-23T12:26:49.069Z,22.86
2019-04-23T12:27:30.984Z,22.82
2019-04-23T12:28:13.325Z,22.67
2019-04-23T12:28:55.445Z,22.57
2019-04-23T12:29:37.124Z,22.6
2019-04-23T12:30:24.675Z,22.59
2019-04-23T12:30:55.631Z,22.57
2019-04-23T12:31:45.070Z,22.59
2019-04-23T12:33:48.863Z,22.61
2019-04-23T12:34:34.134Z,22.6
2019-04-23T12:35:10.710Z,22.59
2019-04-23T12:35:43.270Z,22.46
2019-04-23T12:36:36.838Z,22.46